createdAt,value
2023-05-10T00:01:22.513Z,93604.75
2023-05-10T00:03:50.308Z,93605.38
2023-05-10T00:06:17.894Z,93603.97
2023-05-10T00:08:46.472Z,93598.59
2023-05-10T00:11:14.269Z,93606.44
2023-05-10T00:13:41.887Z,93598.84
2023-05-10T00:16:09.220Z,93598.22
2023-05-10T00:18:36.776Z,93597.72
2023-05-10T00:21:04.315Z,93595.53
2023-05-10T00:23:31.584Z,93598.91
2023-05-10T00:25:59.711Z,93594.91
2023-05-10T00:28:28.837Z,93600.16
2023-05-10T00:30:57.318Z,93598.56
2023-05-10T00:33:24.964Z,93595.16
2023-05-10T00:35:52.680Z,93595.91
2023-05-10T00:38:19.939Z,93594.59
2023-05-10T00:40:47.577Z,93594.59
2023-05-10T00:43:15.542Z,93599.78
2023-05-10T00:45:42.952Z,93593.94
2023-05-10T00:48:10.716Z,93589.72
2023-05-10T00:50:38.325Z,93593.53
2023-05-10T00:53:06.110Z,93588.38
2023-05-10T00:55:33.860Z,93590.00
2023-05-10T00:58:01.278Z,93591.81
2023-05-10T01:00:28.648Z,93592.28
2023-05-10T01:02:56.782Z,93591.44
2023-05-10T01:05:24.244Z,93591.87
2023-05-10T01:07:51.845Z,93593.81
2023-05-10T01:10:19.860Z,93592.81
2023-05-10T01:12:48.921Z,93596.03
2023-05-10T01:15:17.972Z,93598.47
2023-05-10T01:17:47.719Z,93597.72
2023-05-10T01:20:16.340Z,93597.53
2023-05-10T01:23:16.260Z,93592.91
2023-05-10T01:26:10.460Z,93596.94
2023-05-10T01:29:19.174Z,93599.41
2023-05-10T01:32:05.638Z,93587.00
2023-05-10T01:34:49.001Z,93597.78
2023-05-10T01:37:29.353Z,93593.28
2023-05-10T01:40:04.151Z,93599.09
2023-05-10T01:42:40.533Z,93579.50
2023-05-10T01:45:23.890Z,93594.88
2023-05-10T01:48:09.653Z,93594.69
2023-05-10T01:50:40.973Z,93594.09
2023-05-10T01:53:11.925Z,93598.69
2023-05-10T01:55:53.742Z,93595.69
2023-05-10T01:58:31.812Z,93601.06
2023-05-10T02:01:02.914Z,93605.09
2023-05-10T02:03:33.501Z,93605.66
2023-05-10T02:06:01.014Z,93602.91
2023-05-10T02:08:29.069Z,93600.50
2023-05-10T02:10:58.828Z,93598.50
2023-05-10T02:13:28.667Z,93601.28
2023-05-10T02:15:58.209Z,93596.91
2023-05-10T02:18:28.845Z,93600.69
2023-05-10T02:20:57.669Z,93602.88
2023-05-10T02:23:27.389Z,93602.50
2023-05-10T02:25:56.639Z,93599.47
2023-05-10T02:28:25.103Z,93601.28
2023-05-10T02:30:54.165Z,93602.88
2023-05-10T02:33:23.435Z,93598.28
2023-05-10T02:35:52.288Z,93589.69
2023-05-10T02:38:22.751Z,93594.50
2023-05-10T02:40:52.470Z,93592.91
2023-05-10T02:43:21.227Z,93593.09
2023-05-10T02:45:49.507Z,93590.28
2023-05-10T02:48:18.008Z,93593.28
2023-05-10T02:50:47.778Z,93595.47
2023-05-10T02:53:28.448Z,93586.69
2023-05-10T02:56:00.097Z,93584.09
2023-05-10T02:58:27.806Z,93593.69
2023-05-10T03:00:55.174Z,93585.69
2023-05-10T03:03:23.221Z,93590.09
2023-05-10T03:05:50.784Z,93589.31
2023-05-10T03:08:18.282Z,93586.91
2023-05-10T03:11:09.056Z,93593.09
2023-05-10T03:14:04.870Z,93591.28
2023-05-10T03:17:05.545Z,93596.03
2023-05-10T03:20:12.741Z,93589.66
2023-05-10T03:22:48.199Z,93592.69
2023-05-10T03:25:17.860Z,93589.31
2023-05-10T03:27:47.318Z,93586.47
2023-05-10T03:30:16.299Z,93585.06
2023-05-10T03:32:43.769Z,93586.06
2023-05-10T03:35:14.301Z,93595.06
2023-05-10T03:37:42.877Z,93587.66
2023-05-10T03:40:11.227Z,93585.69
2023-05-10T03:42:39.931Z,93581.09
2023-05-10T03:45:08.338Z,93585.47
2023-05-10T03:47:36.310Z,93578.47
2023-05-10T03:50:04.578Z,93590.09
2023-05-10T03:52:32.902Z,93591.44
2023-05-10T03:55:00.646Z,93593.44
2023-05-10T03:57:28.029Z,93589.03
2023-05-10T03:59:55.617Z,93589.66
2023-05-10T04:02:24.199Z,93587.88
2023-05-10T04:04:52.188Z,93587.09
2023-05-10T04:07:20.437Z,93588.28
2023-05-10T04:09:48.558Z,93596.66
2023-05-10T04:12:17.154Z,93605.87
2023-05-10T04:14:44.745Z,93600.88
2023-05-10T04:17:12.815Z,93594.88
2023-05-10T04:19:40.879Z,93598.50
2023-05-10T04:22:10.655Z,93606.09
2023-05-10T04:24:38.064Z,93598.28
2023-05-10T04:27:07.531Z,93599.28
2023-05-10T04:29:52.423Z,93587.91
2023-05-10T04:32:21.560Z,93601.50
2023-05-10T04:34:49.798Z,93611.47
2023-05-10T04:37:17.229Z,93589.50
2023-05-10T04:39:45.100Z,93605.50
2023-05-10T04:42:13.025Z,93595.09
2023-05-10T04:44:41.471Z,93596.28
2023-05-10T04:47:11.265Z,93576.72
2023-05-10T04:49:40.080Z,93602.69
2023-05-10T04:52:11.121Z,93594.09
2023-05-10T04:54:38.831Z,93589.72
2023-05-10T04:57:08.702Z,93597.69
2023-05-10T04:59:38.946Z,93589.50
2023-05-10T05:02:06.937Z,93593.91
2023-05-10T05:04:38.510Z,93590.91
2023-05-10T05:07:07.221Z,93592.88
2023-05-10T05:09:35.039Z,93596.47
2023-05-10T05:12:02.840Z,93589.88
2023-05-10T05:14:30.199Z,93582.09
2023-05-10T05:16:57.979Z,93589.91
2023-05-10T05:19:26.366Z,93597.09
2023-05-10T05:21:53.735Z,93608.28
2023-05-10T05:24:21.849Z,93600.69
2023-05-10T05:26:52.372Z,93598.31
2023-05-10T05:29:19.871Z,93601.88
2023-05-10T05:31:47.830Z,93594.69
2023-05-10T05:34:15.235Z,93602.06
2023-05-10T05:36:42.593Z,93601.28
2023-05-10T05:39:10.284Z,93604.09
2023-05-10T05:41:37.721Z,93600.47
2023-05-10T05:44:05.105Z,93606.87
2023-05-10T05:46:32.777Z,93609.88
2023-05-10T05:49:00.084Z,93611.88
2023-05-10T05:51:27.492Z,93611.69
2023-05-10T05:53:55.280Z,93616.88
2023-05-10T05:56:25.706Z,93622.28
2023-05-10T05:58:53.243Z,93622.84
2023-05-10T06:01:21.050Z,93620.06
2023-05-10T06:03:49.892Z,93623.69
2023-05-10T06:06:18.386Z,93622.69
2023-05-10T06:08:45.853Z,93620.06
2023-05-10T06:11:13.548Z,93619.88
2023-05-10T06:13:40.888Z,93619.31
2023-05-10T06:16:08.395Z,93621.28
2023-05-10T06:18:36.625Z,93618.28
2023-05-10T06:21:08.537Z,93621.25
2023-05-10T06:23:37.105Z,93616.47
2023-05-10T06:26:05.155Z,93627.28
2023-05-10T06:28:35.680Z,93635.84
2023-05-10T06:31:03.546Z,93630.25
2023-05-10T06:33:31.254Z,93640.84
2023-05-10T06:35:58.767Z,93634.84
2023-05-10T06:38:26.957Z,93631.25
2023-05-10T06:40:54.669Z,93632.44
2023-05-10T06:43:22.130Z,93631.19
2023-05-10T06:45:50.055Z,93630.00
2023-05-10T06:48:18.025Z,93632.00
2023-05-10T06:50:46.021Z,93633.06
2023-05-10T06:53:14.468Z,93635.44
2023-05-10T06:55:41.907Z,93634.47
2023-05-10T06:58:09.224Z,93642.88
2023-05-10T07:00:41.795Z,93640.28
2023-05-10T07:03:09.306Z,93634.50
2023-05-10T07:05:37.500Z,93644.69
2023-05-10T07:08:05.229Z,93637.66
2023-05-10T07:10:32.763Z,93634.28
2023-05-10T07:13:01.592Z,93642.25
2023-05-10T07:15:29.722Z,93638.28
2023-05-10T07:17:57.213Z,93636.28
2023-05-10T07:20:25.027Z,93644.25
2023-05-10T07:22:52.411Z,93646.28
2023-05-10T07:25:19.861Z,93650.06
2023-05-10T07:27:49.752Z,93649.88
2023-05-10T07:30:17.536Z,93642.66
2023-05-10T07:32:45.509Z,93643.84
2023-05-10T07:35:13.865Z,93642.25
2023-05-10T07:37:41.734Z,93648.03
2023-05-10T07:40:10.229Z,93647.66
2023-05-10T07:42:38.601Z,93655.66
2023-05-10T07:45:06.949Z,93650.63
2023-05-10T07:47:34.354Z,93653.63
2023-05-10T07:50:03.130Z,93654.81
2023-05-10T07:52:30.705Z,93656.00
2023-05-10T07:54:58.666Z,93654.03
2023-05-10T07:57:26.714Z,93643.41
2023-05-10T07:59:55.125Z,93653.44
2023-05-10T08:02:23.075Z,93652.03
2023-05-10T08:04:51.203Z,93660.84
2023-05-10T08:07:24.664Z,93656.22
2023-05-10T08:09:52.855Z,93656.22
2023-05-10T08:12:20.596Z,93662.81
2023-05-10T08:14:47.957Z,93666.81
2023-05-10T08:17:15.551Z,93670.22
2023-05-10T08:19:42.910Z,93674.22
2023-05-10T08:22:10.352Z,93674.84
2023-05-10T08:24:39.591Z,93680.25
2023-05-10T08:27:07.522Z,93679.03
2023-05-10T08:29:46.232Z,93686.03
2023-05-10T08:32:18.388Z,93681.66
2023-05-10T08:34:45.760Z,93681.84
2023-05-10T08:37:14.652Z,93678.03
2023-05-10T08:39:42.563Z,93680.63
2023-05-10T08:42:11.187Z,93676.63
2023-05-10T08:44:38.968Z,93673.03
2023-05-10T08:47:08.661Z,93677.63
2023-05-10T08:49:38.729Z,93680.81
2023-05-10T08:52:09.527Z,93679.00
